sensor_id;sensor_type;location;lat;lon;timestamp;P1;durP1;ratioP1;P2;durP2;ratioP2
24389;SDS011;12510;56.468;-3.004;2022-07-29T00:01:46;6.75;;;5.32;;
24389;SDS011;12510;56.468;-3.004;2022-07-29T00:04:13;5.82;;;5.07;;
24389;SDS011;12510;56.468;-3.004;2022-07-29T00:06:39;8.25;;;6.30;;
24389;SDS011;12510;56.468;-3.004;2022-07-29T00:09:06;8.13;;;6.28;;
24389;SDS011;12510;56.468;-3.004;2022-07-29T00:11:33;8.88;;;5.72;;
24389;SDS011;12510;56.468;-3.004;2022-07-29T00:13:59;6.38;;;5.78;;
24389;SDS011;12510;56.468;-3.004;2022-07-29T00:16:26;8.80;;;6.15;;
24389;SDS011;12510;56.468;-3.004;2022-07-29T00:18:52;9.27;;;7.80;;
24389;SDS011;12510;56.468;-3.004;2022-07-29T00:21:18;6.97;;;6.28;;
24389;SDS011;12510;56.468;-3.004;2022-07-29T00:23:45;9.20;;;7.72;;
24389;SDS011;12510;56.468;-3.004;2022-07-29T00:26:11;11.32;;;8.30;;
24389;SDS011;12510;56.468;-3.004;2022-07-29T00:28:38;7.57;;;6.90;;
24389;SDS011;12510;56.468;-3.004;2022-07-29T00:31:04;9.15;;;8.20;;
24389;SDS011;12510;56.468;-3.004;2022-07-29T00:33:31;8.02;;;7.25;;
24389;SDS011;12510;56.468;-3.004;2022-07-29T00:35:57;9.23;;;8.00;;
24389;SDS011;12510;56.468;-3.004;2022-07-29T00:38:24;9.38;;;8.40;;
24389;SDS011;12510;56.468;-3.004;2022-07-29T00:40:50;11.25;;;8.32;;
24389;SDS011;12510;56.468;-3.004;2022-07-29T00:43:17;9.23;;;8.35;;
24389;SDS011;12510;56.468;-3.004;2022-07-29T00:45:43;8.60;;;7.80;;
24389;SDS011;12510;56.468;-3.004;2022-07-29T00:48:10;11.88;;;8.38;;
24389;SDS011;12510;56.468;-3.004;2022-07-29T00:50:37;12.48;;;8.93;;
24389;SDS011;12510;56.468;-3.004;2022-07-29T00:53:07;11.10;;;8.82;;
24389;SDS011;12510;56.468;-3.004;2022-07-29T00:58:01;9.48;;;8.60;;
24389;SDS011;12510;56.468;-3.004;2022-07-29T01:00:28;9.32;;;8.43;;
24389;SDS011;12510;56.468;-3.004;2022-07-29T01:02:55;9.13;;;8.32;;
24389;SDS011;12510;56.468;-3.004;2022-07-29T01:05:22;13.55;;;9.43;;
24389;SDS011;12510;56.468;-3.004;2022-07-29T01:07:51;10.80;;;9.57;;
24389;SDS011;12510;56.468;-3.004;2022-07-29T01:10:19;9.95;;;9.10;;
24389;SDS011;12510;56.468;-3.004;2022-07-29T01:12:48;9.82;;;8.88;;
24389;SDS011;12510;56.468;-3.004;2022-07-29T01:15:17;10.57;;;9.00;;
24389;SDS011;12510;56.468;-3.004;2022-07-29T01:20:36;9.25;;;8.30;;
24389;SDS011;12510;56.468;-3.004;2022-07-29T01:23:11;10.15;;;8.65;;
24389;SDS011;12510;56.468;-3.004;2022-07-29T01:29:06;13.35;;;8.95;;
24389;SDS011;12510;56.468;-3.004;2022-07-29T01:34:20;8.95;;;7.78;;
24389;SDS011;12510;56.468;-3.004;2022-07-29T01:39:34;8.82;;;7.97;;
24389;SDS011;12510;56.468;-3.004;2022-07-29T01:47:31;12.10;;;8.45;;
24389;SDS011;12510;56.468;-3.004;2022-07-29T01:50:03;8.77;;;7.88;;
24389;SDS011;12510;56.468;-3.004;2022-07-29T01:52:36;8.98;;;8.20;;
24389;SDS011;12510;56.468;-3.004;2022-07-29T01:55:13;11.32;;;7.90;;
24389;SDS011;12510;56.468;-3.004;2022-07-29T01:57:42;10.98;;;8.40;;
24389;SDS011;12510;56.468;-3.004;2022-07-29T02:00:11;12.35;;;9.35;;
24389;SDS011;12510;56.468;-3.004;2022-07-29T02:02:39;10.20;;;9.27;;
24389;SDS011;12510;56.468;-3.004;2022-07-29T02:05:08;10.57;;;8.60;;
24389;SDS011;12510;56.468;-3.004;2022-07-29T02:07:38;10.55;;;9.40;;
24389;SDS011;12510;56.468;-3.004;2022-07-29T02:10:06;8.95;;;8.25;;
24389;SDS011;12510;56.468;-3.004;2022-07-29T02:12:36;8.25;;;6.60;;
24389;SDS011;12510;56.468;-3.004;2022-07-29T02:15:04;10.10;;;7.32;;
24389;SDS011;12510;56.468;-3.004;2022-07-29T02:17:36;9.73;;;8.82;;
24389;SDS011;12510;56.468;-3.004;2022-07-29T02:20:10;8.98;;;8.13;;
24389;SDS011;12510;56.468;-3.004;2022-07-29T02:22:39;12.43;;;8.55;;
24389;SDS011;12510;56.468;-3.004;2022-07-29T02:25:07;11.15;;;8.30;;
24389;SDS011;12510;56.468;-3.004;2022-07-29T02:27:34;8.27;;;7.47;;
24389;SDS011;12510;56.468;-3.004;2022-07-29T02:30:03;10.38;;;7.90;;
24389;SDS011;12510;56.468;-3.004;2022-07-29T02:32:31;7.32;;;6.72;;
24389;SDS011;12510;56.468;-3.004;2022-07-29T02:35:00;8.10;;;7.22;;
24389;SDS011;12510;56.468;-3.004;2022-07-29T02:37:28;7.20;;;6.43;;
24389;SDS011;12510;56.468;-3.004;2022-07-29T02:39:56;6.80;;;6.30;;
24389;SDS011;12510;56.468;-3.004;2022-07-29T02:42:24;6.35;;;5.80;;
24389;SDS011;12510;56.468;-3.004;2022-07-29T02:44:54;9.93;;;6.95;;
24389;SDS011;12510;56.468;-3.004;2022-07-29T02:47:27;8.45;;;7.18;;
24389;SDS011;12510;56.468;-3.004;2022-07-29T02:50:02;7.85;;;7.05;;
24389;SDS011;12510;56.468;-3.004;2022-07-29T02:58:01;10.43;;;5.93;;
24389;SDS011;12510;56.468;-3.004;2022-07-29T03:00:41;6.50;;;4.22;;
24389;SDS011;12510;56.468;-3.004;2022-07-29T03:03:15;6.50;;;5.43;;
24389;SDS011;12510;56.468;-3.004;2022-07-29T03:05:43;7.35;;;5.32;;
24389;SDS011;12510;56.468;-3.004;2022-07-29T03:08:10;8.27;;;5.82;;
24389;SDS011;12510;56.468;-3.004;2022-07-29T03:10:39;6.85;;;4.90;;
24389;SDS011;12510;56.468;-3.004;2022-07-29T03:13:09;5.57;;;4.50;;
24389;SDS011;12510;56.468;-3.004;2022-07-29T03:15:36;5.00;;;4.50;;
24389;SDS011;12510;56.468;-3.004;2022-07-29T03:18:03;6.72;;;4.60;;
24389;SDS011;12510;56.468;-3.004;2022-07-29T03:20:31;4.95;;;4.45;;
24389;SDS011;12510;56.468;-3.004;2022-07-29T03:22:58;5.20;;;4.70;;
24389;SDS011;12510;56.468;-3.004;2022-07-29T03:25:24;4.40;;;4.00;;
24389;SDS011;12510;56.468;-3.004;2022-07-29T03:27:52;5.95;;;4.28;;
24389;SDS011;12510;56.468;-3.004;2022-07-29T03:30:19;5.10;;;4.00;;
24389;SDS011;12510;56.468;-3.004;2022-07-29T03:32:45;5.75;;;3.88;;
24389;SDS011;12510;56.468;-3.004;2022-07-29T03:35:12;7.60;;;4.18;;
24389;SDS011;12510;56.468;-3.004;2022-07-29T03:37:39;5.75;;;3.63;;
24389;SDS011;12510;56.468;-3.004;2022-07-29T03:40:07;9.35;;;4.53;;
24389;SDS011;12510;56.468;-3.004;2022-07-29T03:42:37;4.25;;;3.85;;
24389;SDS011;12510;56.468;-3.004;2022-07-29T03:45:06;4.70;;;4.13;;
24389;SDS011;12510;56.468;-3.004;2022-07-29T03:47:37;4.63;;;3.97;;
24389;SDS011;12510;56.468;-3.004;2022-07-29T03:50:06;6.70;;;4.18;;
24389;SDS011;12510;56.468;-3.004;2022-07-29T03:52:37;6.28;;;3.90;;
24389;SDS011;12510;56.468;-3.004;2022-07-29T03:55:04;5.05;;;3.60;;
24389;SDS011;12510;56.468;-3.004;2022-07-29T03:57:31;4.95;;;4.00;;
24389;SDS011;12510;56.468;-3.004;2022-07-29T03:59:59;5.97;;;4.32;;
24389;SDS011;12510;56.468;-3.004;2022-07-29T04:02:30;3.67;;;3.25;;
24389;SDS011;12510;56.468;-3.004;2022-07-29T04:04:58;6.25;;;3.53;;
24389;SDS011;12510;56.468;-3.004;2022-07-29T04:07:24;4.10;;;3.70;;
24389;SDS011;12510;56.468;-3.004;2022-07-29T04:09:51;6.05;;;3.70;;
24389;SDS011;12510;56.468;-3.004;2022-07-29T04:12:17;5.90;;;3.85;;
24389;SDS011;12510;56.468;-3.004;2022-07-29T04:14:44;4.10;;;3.75;;
24389;SDS011;12510;56.468;-3.004;2022-07-29T04:17:10;4.05;;;3.65;;
24389;SDS011;12510;56.468;-3.004;2022-07-29T04:19:37;4.70;;;3.80;;
24389;SDS011;12510;56.468;-3.004;2022-07-29T04:22:03;4.15;;;3.72;;
24389;SDS011;12510;56.468;-3.004;2022-07-29T04:24:29;8.02;;;4.30;;
24389;SDS011;12510;56.468;-3.004;2022-07-29T04:26:56;5.20;;;4.70;;
24389;SDS011;12510;56.468;-3.004;2022-07-29T04:29:22;3.30;;;3.00;;
24389;SDS011;12510;56.468;-3.004;2022-07-29T04:31:48;5.40;;;3.70;;
24389;SDS011;12510;56.468;-3.004;2022-07-29T04:34:15;4.57;;;3.45;;
24389;SDS011;12510;56.468;-3.004;2022-07-29T04:36:41;4.90;;;4.03;;
24389;SDS011;12510;56.468;-3.004;2022-07-29T04:39:11;6.55;;;4.35;;
24389;SDS011;12510;56.468;-3.004;2022-07-29T04:41:37;6.45;;;4.57;;
24389;SDS011;12510;56.468;-3.004;2022-07-29T04:44:04;8.27;;;4.60;;
24389;SDS011;12510;56.468;-3.004;2022-07-29T04:46:31;5.47;;;4.63;;
24389;SDS011;12510;56.468;-3.004;2022-07-29T04:48:58;4.70;;;4.07;;
24389;SDS011;12510;56.468;-3.004;2022-07-29T04:51:24;8.48;;;4.15;;
24389;SDS011;12510;56.468;-3.004;2022-07-29T04:53:50;4.35;;;3.70;;
24389;SDS011;12510;56.468;-3.004;2022-07-29T04:56:17;5.00;;;4.50;;
24389;SDS011;12510;56.468;-3.004;2022-07-29T04:58:43;7.45;;;5.03;;
24389;SDS011;12510;56.468;-3.004;2022-07-29T05:01:10;5.20;;;4.70;;
24389;SDS011;12510;56.468;-3.004;2022-07-29T05:03:36;5.03;;;4.53;;
24389;SDS011;12510;56.468;-3.004;2022-07-29T05:06:02;4.70;;;4.30;;
24389;SDS011;12510;56.468;-3.004;2022-07-29T05:08:29;7.28;;;4.85;;
24389;SDS011;12510;56.468;-3.004;2022-07-29T05:10:55;6.57;;;5.13;;
24389;SDS011;12510;56.468;-3.004;2022-07-29T05:13:21;4.70;;;4.30;;
24389;SDS011;12510;56.468;-3.004;2022-07-29T05:15:48;5.90;;;5.07;;
24389;SDS011;12510;56.468;-3.004;2022-07-29T05:18:14;8.00;;;4.72;;
24389;SDS011;12510;56.468;-3.004;2022-07-29T05:20:41;5.95;;;4.53;;
24389;SDS011;12510;56.468;-3.004;2022-07-29T05:23:07;8.60;;;5.57;;
24389;SDS011;12510;56.468;-3.004;2022-07-29T05:25:34;5.72;;;4.65;;
24389;SDS011;12510;56.468;-3.004;2022-07-29T05:28:01;9.50;;;5.00;;
24389;SDS011;12510;56.468;-3.004;2022-07-29T05:30:27;5.90;;;5.03;;
24389;SDS011;12510;56.468;-3.004;2022-07-29T05:32:53;5.40;;;4.28;;
24389;SDS011;12510;56.468;-3.004;2022-07-29T05:35:20;4.53;;;4.07;;
24389;SDS011;12510;56.468;-3.004;2022-07-29T05:37:46;7.38;;;5.18;;
24389;SDS011;12510;56.468;-3.004;2022-07-29T05:40:13;5.57;;;4.57;;
24389;SDS011;12510;56.468;-3.004;2022-07-29T05:42:39;9.55;;;6.72;;
24389;SDS011;12510;56.468;-3.004;2022-07-29T05:45:05;7.22;;;4.90;;
24389;SDS011;12510;56.468;-3.004;2022-07-29T05:47:32;8.77;;;5.63;;
24389;SDS011;12510;56.468;-3.004;2022-07-29T05:49:58;8.25;;;4.70;;
24389;SDS011;12510;56.468;-3.004;2022-07-29T05:52:25;7.25;;;4.35;;
24389;SDS011;12510;56.468;-3.004;2022-07-29T05:54:51;7.82;;;4.50;;
24389;SDS011;12510;56.468;-3.004;2022-07-29T05:57:19;5.80;;;5.05;;
24389;SDS011;12510;56.468;-3.004;2022-07-29T05:59:48;5.60;;;4.40;;
24389;SDS011;12510;56.468;-3.004;2022-07-29T06:02:15;4.90;;;4.40;;
24389;SDS011;12510;56.468;-3.004;2022-07-29T06:04:42;8.13;;;5.13;;
24389;SDS011;12510;56.468;-3.004;2022-07-29T06:07:09;12.02;;;8.15;;
24389;SDS011;12510;56.468;-3.004;2022-07-29T06:09:37;5.45;;;4.55;;
24389;SDS011;12510;56.468;-3.004;2022-07-29T06:12:03;9.23;;;4.75;;
24389;SDS011;12510;56.468;-3.004;2022-07-29T06:14:33;9.30;;;5.07;;
24389;SDS011;12510;56.468;-3.004;2022-07-29T06:17:00;9.55;;;4.90;;
24389;SDS011;12510;56.468;-3.004;2022-07-29T06:19:26;7.05;;;5.70;;
24389;SDS011;12510;56.468;-3.004;2022-07-29T06:21:52;7.85;;;5.18;;
24389;SDS011;12510;56.468;-3.004;2022-07-29T06:24:19;7.00;;;5.20;;
24389;SDS011;12510;56.468;-3.004;2022-07-29T06:26:45;5.22;;;4.82;;
24389;SDS011;12510;56.468;-3.004;2022-07-29T06:29:12;6.25;;;5.25;;
24389;SDS011;12510;56.468;-3.004;2022-07-29T06:31:38;8.80;;;5.28;;
24389;SDS011;12510;56.468;-3.004;2022-07-29T06:34:05;5.97;;;4.80;;
24389;SDS011;12510;56.468;-3.004;2022-07-29T06:36:34;10.50;;;5.55;;
24389;SDS011;12510;56.468;-3.004;2022-07-29T06:39:03;8.45;;;4.88;;
24389;SDS011;12510;56.468;-3.004;2022-07-29T06:41:31;7.03;;;4.50;;
24389;SDS011;12510;56.468;-3.004;2022-07-29T06:44:03;6.70;;;4.13;;
24389;SDS011;12510;56.468;-3.004;2022-07-29T06:46:30;6.97;;;4.80;;
24389;SDS011;12510;56.468;-3.004;2022-07-29T06:48:57;7.13;;;4.70;;
24389;SDS011;12510;56.468;-3.004;2022-07-29T06:51:24;6.65;;;4.93;;
24389;SDS011;12510;56.468;-3.004;2022-07-29T06:53:51;5.97;;;3.80;;
24389;SDS011;12510;56.468;-3.004;2022-07-29T06:56:18;7.88;;;4.15;;
24389;SDS011;12510;56.468;-3.004;2022-07-29T06:58:44;6.85;;;3.35;;
24389;SDS011;12510;56.468;-3.004;2022-07-29T07:01:11;8.90;;;4.18;;
24389;SDS011;12510;56.468;-3.004;2022-07-29T07:03:37;6.38;;;3.33;;
24389;SDS011;12510;56.468;-3.004;2022-07-29T07:06:03;4.53;;;2.80;;
24389;SDS011;12510;56.468;-3.004;2022-07-29T07:08:30;5.55;;;3.55;;
24389;SDS011;12510;56.468;-3.004;2022-07-29T07:10:56;10.82;;;6.15;;
24389;SDS011;12510;56.468;-3.004;2022-07-29T07:13:23;7.90;;;3.95;;
24389;SDS011;12510;56.468;-3.004;2022-07-29T07:15:50;6.25;;;4.55;;
24389;SDS011;12510;56.468;-3.004;2022-07-29T07:18:18;7.18;;;3.05;;
24389;SDS011;12510;56.468;-3.004;2022-07-29T07:20:44;6.05;;;2.78;;
24389;SDS011;12510;56.468;-3.004;2022-07-29T07:23:11;7.57;;;3.47;;
24389;SDS011;12510;56.468;-3.004;2022-07-29T07:25:37;4.80;;;2.63;;
24389;SDS011;12510;56.468;-3.004;2022-07-29T07:28:04;5.97;;;2.80;;
24389;SDS011;12510;56.468;-3.004;2022-07-29T07:30:30;6.25;;;3.60;;
24389;SDS011;12510;56.468;-3.004;2022-07-29T07:32:57;5.40;;;2.85;;
24389;SDS011;12510;56.468;-3.004;2022-07-29T07:35:23;7.25;;;3.22;;
24389;SDS011;12510;56.468;-3.004;2022-07-29T07:37:50;5.57;;;2.85;;
24389;SDS011;12510;56.468;-3.004;2022-07-29T07:40:16;5.78;;;2.70;;
24389;SDS011;12510;56.468;-3.004;2022-07-29T07:42:42;4.60;;;3.20;;
24389;SDS011;12510;56.468;-3.004;2022-07-29T07:45:09;4.25;;;2.40;;
24389;SDS011;12510;56.468;-3.004;2022-07-29T07:47:36;5.63;;;2.20;;
24389;SDS011;12510;56.468;-3.004;2022-07-29T07:50:04;5.63;;;3.33;;
24389;SDS011;12510;56.468;-3.004;2022-07-29T07:52:32;6.82;;;2.13;;
24389;SDS011;12510;56.468;-3.004;2022-07-29T07:54:59;6.20;;;2.90;;
24389;SDS011;12510;56.468;-3.004;2022-07-29T07:57:26;5.47;;;2.25;;
24389;SDS011;12510;56.468;-3.004;2022-07-29T07:59:53;4.88;;;2.45;;
24389;SDS011;12510;56.468;-3.004;2022-07-29T08:02:19;3.85;;;2.28;;
24389;SDS011;12510;56.468;-3.004;2022-07-29T08:04:46;2.45;;;2.22;;
24389;SDS011;12510;56.468;-3.004;2022-07-29T08:07:12;2.42;;;2.00;;
24389;SDS011;12510;56.468;-3.004;2022-07-29T08:09:40;3.55;;;2.17;;
24389;SDS011;12510;56.468;-3.004;2022-07-29T08:12:07;4.90;;;1.83;;
24389;SDS011;12510;56.468;-3.004;2022-07-29T08:14:33;5.40;;;2.97;;
24389;SDS011;12510;56.468;-3.004;2022-07-29T08:17:00;2.55;;;2.25;;
24389;SDS011;12510;56.468;-3.004;2022-07-29T08:19:26;6.22;;;2.30;;
24389;SDS011;12510;56.468;-3.004;2022-07-29T08:21:53;2.45;;;2.08;;
24389;SDS011;12510;56.468;-3.004;2022-07-29T08:24:20;2.38;;;1.90;;
24389;SDS011;12510;56.468;-3.004;2022-07-29T08:27:06;4.80;;;1.60;;
24389;SDS011;12510;56.468;-3.004;2022-07-29T08:29:33;3.70;;;2.10;;
24389;SDS011;12510;56.468;-3.004;2022-07-29T08:31:59;3.83;;;1.70;;
24389;SDS011;12510;56.468;-3.004;2022-07-29T08:34:26;4.70;;;2.28;;
24389;SDS011;12510;56.468;-3.004;2022-07-29T08:36:54;4.22;;;1.80;;
24389;SDS011;12510;56.468;-3.004;2022-07-29T08:39:22;2.65;;;1.83;;
24389;SDS011;12510;56.468;-3.004;2022-07-29T08:41:49;3.35;;;1.70;;
24389;SDS011;12510;56.468;-3.004;2022-07-29T08:44:17;2.80;;;1.63;;
24389;SDS011;12510;56.468;-3.004;2022-07-29T08:46:45;5.22;;;1.85;;
24389;SDS011;12510;56.468;-3.004;2022-07-29T08:49:11;3.33;;;1.70;;
24389;SDS011;12510;56.468;-3.004;2022-07-29T08:51:39;4.13;;;1.80;;
24389;SDS011;12510;56.468;-3.004;2022-07-29T08:54:07;2.97;;;1.80;;
24389;SDS011;12510;56.468;-3.004;2022-07-29T08:56:35;2.88;;;1.70;;
24389;SDS011;12510;56.468;-3.004;2022-07-29T08:59:03;3.47;;;1.63;;
24389;SDS011;12510;56.468;-3.004;2022-07-29T09:01:33;3.28;;;1.50;;
24389;SDS011;12510;56.468;-3.004;2022-07-29T09:04:03;4.38;;;1.95;;
24389;SDS011;12510;56.468;-3.004;2022-07-29T09:06:31;3.35;;;1.50;;
24389;SDS011;12510;56.468;-3.004;2022-07-29T09:09:00;2.67;;;1.80;;
24389;SDS011;12510;56.468;-3.004;2022-07-29T09:11:26;4.57;;;1.88;;
24389;SDS011;12510;56.468;-3.004;2022-07-29T09:13:54;5.38;;;1.52;;
24389;SDS011;12510;56.468;-3.004;2022-07-29T09:16:20;3.17;;;1.70;;
24389;SDS011;12510;56.468;-3.004;2022-07-29T09:18:47;2.60;;;1.63;;
24389;SDS011;12510;56.468;-3.004;2022-07-29T09:21:14;4.03;;;1.50;;
24389;SDS011;12510;56.468;-3.004;2022-07-29T09:24:14;3.60;;;1.73;;
24389;SDS011;12510;56.468;-3.004;2022-07-29T09:26:44;3.83;;;1.70;;
24389;SDS011;12510;56.468;-3.004;2022-07-29T09:29:12;6.22;;;2.22;;
24389;SDS011;12510;56.468;-3.004;2022-07-29T09:31:41;3.38;;;1.55;;
24389;SDS011;12510;56.468;-3.004;2022-07-29T09:34:11;1.85;;;1.40;;
24389;SDS011;12510;56.468;-3.004;2022-07-29T09:36:40;2.63;;;1.27;;
24389;SDS011;12510;56.468;-3.004;2022-07-29T09:39:11;2.22;;;1.30;;
24389;SDS011;12510;56.468;-3.004;2022-07-29T09:44:12;1.65;;;1.23;;
24389;SDS011;12510;56.468;-3.004;2022-07-29T09:46:39;7.03;;;1.65;;
24389;SDS011;12510;56.468;-3.004;2022-07-29T09:49:11;4.35;;;1.42;;
24389;SDS011;12510;56.468;-3.004;2022-07-29T09:51:40;3.13;;;1.10;;
24389;SDS011;12510;56.468;-3.004;2022-07-29T09:54:23;5.45;;;1.27;;
24389;SDS011;12510;56.468;-3.004;2022-07-29T09:56:54;2.92;;;1.00;;
24389;SDS011;12510;56.468;-3.004;2022-07-29T09:59:21;3.10;;;1.17;;
24389;SDS011;12510;56.468;-3.004;2022-07-29T10:01:52;1.52;;;1.30;;
24389;SDS011;12510;56.468;-3.004;2022-07-29T10:04:19;1.13;;;0.90;;
24389;SDS011;12510;56.468;-3.004;2022-07-29T10:06:59;3.38;;;1.42;;
24389;SDS011;12510;56.468;-3.004;2022-07-29T10:09:26;2.47;;;1.40;;
24389;SDS011;12510;56.468;-3.004;2022-07-29T10:12:07;1.88;;;1.23;;
24389;SDS011;12510;56.468;-3.004;2022-07-29T10:14:40;1.80;;;1.15;;
24389;SDS011;12510;56.468;-3.004;2022-07-29T10:17:08;3.28;;;1.55;;
24389;SDS011;12510;56.468;-3.004;2022-07-29T10:19:36;4.25;;;1.50;;
24389;SDS011;12510;56.468;-3.004;2022-07-29T10:22:04;2.72;;;1.35;;
24389;SDS011;12510;56.468;-3.004;2022-07-29T10:24:33;2.90;;;1.13;;
24389;SDS011;12510;56.468;-3.004;2022-07-29T10:27:01;2.60;;;1.17;;
24389;SDS011;12510;56.468;-3.004;2022-07-29T10:29:29;4.47;;;2.70;;
24389;SDS011;12510;56.468;-3.004;2022-07-29T10:43:22;3.92;;;1.65;;
24389;SDS011;12510;56.468;-3.004;2022-07-29T10:45:54;6.07;;;1.25;;
24389;SDS011;12510;56.468;-3.004;2022-07-29T10:48:22;1.75;;;1.30;;
24389;SDS011;12510;56.468;-3.004;2022-07-29T10:51:00;4.00;;;1.90;;
24389;SDS011;12510;56.468;-3.004;2022-07-29T10:56:28;2.38;;;1.52;;
24389;SDS011;12510;56.468;-3.004;2022-07-29T11:01:53;2.67;;;1.30;;
24389;SDS011;12510;56.468;-3.004;2022-07-29T11:07:14;2.80;;;1.50;;
24389;SDS011;12510;56.468;-3.004;2022-07-29T11:09:42;2.35;;;1.20;;
24389;SDS011;12510;56.468;-3.004;2022-07-29T11:12:56;3.10;;;1.30;;
24389;SDS011;12510;56.468;-3.004;2022-07-29T11:15:10;5.65;;;1.50;;
24389;SDS011;12510;56.468;-3.004;2022-07-29T11:23:17;2.53;;;1.17;;
24389;SDS011;12510;56.468;-3.004;2022-07-29T11:28:51;3.53;;;1.40;;
24389;SDS011;12510;56.468;-3.004;2022-07-29T11:39:35;4.35;;;2.15;;
24389;SDS011;12510;56.468;-3.004;2022-07-29T11:44:58;2.83;;;1.20;;
24389;SDS011;12510;56.468;-3.004;2022-07-29T11:47:38;3.63;;;1.60;;
24389;SDS011;12510;56.468;-3.004;2022-07-29T11:50:11;2.00;;;1.58;;
24389;SDS011;12510;56.468;-3.004;2022-07-29T11:52:39;6.10;;;2.80;;
24389;SDS011;12510;56.468;-3.004;2022-07-29T11:55:15;4.25;;;2.78;;
24389;SDS011;12510;56.468;-3.004;2022-07-29T11:57:47;2.40;;;2.00;;
24389;SDS011;12510;56.468;-3.004;2022-07-29T12:00:20;3.13;;;2.47;;
24389;SDS011;12510;56.468;-3.004;2022-07-29T12:02:48;7.50;;;2.22;;
24389;SDS011;12510;56.468;-3.004;2022-07-29T12:05:15;2.53;;;1.70;;
24389;SDS011;12510;56.468;-3.004;2022-07-29T12:07:41;5.10;;;2.10;;
24389;SDS011;12510;56.468;-3.004;2022-07-29T12:10:08;6.65;;;1.90;;
24389;SDS011;12510;56.468;-3.004;2022-07-29T12:12:35;3.40;;;1.85;;
24389;SDS011;12510;56.468;-3.004;2022-07-29T12:15:11;5.13;;;2.40;;
24389;SDS011;12510;56.468;-3.004;2022-07-29T12:17:47;7.32;;;2.40;;
24389;SDS011;12510;56.468;-3.004;2022-07-29T12:20:21;4.10;;;1.80;;
24389;SDS011;12510;56.468;-3.004;2022-07-29T12:22:50;3.88;;;1.80;;
24389;SDS011;12510;56.468;-3.004;2022-07-29T12:25:16;2.97;;;1.85;;
24389;SDS011;12510;56.468;-3.004;2022-07-29T12:27:44;4.78;;;2.10;;
24389;SDS011;12510;56.468;-3.004;2022-07-29T12:30:14;5.28;;;2.13;;
24389;SDS011;12510;56.468;-3.004;2022-07-29T12:32:43;5.53;;;2.03;;
24389;SDS011;12510;56.468;-3.004;2022-07-29T12:35:14;5.25;;;2.20;;
24389;SDS011;12510;56.468;-3.004;2022-07-29T12:37:43;5.30;;;2.35;;
24389;SDS011;12510;56.468;-3.004;2022-07-29T12:40:11;4.00;;;1.95;;
24389;SDS011;12510;56.468;-3.004;2022-07-29T12:42:39;5.25;;;2.13;;
24389;SDS011;12510;56.468;-3.004;2022-07-29T12:45:06;5.57;;;2.00;;
24389;SDS011;12510;56.468;-3.004;2022-07-29T12:47:33;6.78;;;2.33;;
24389;SDS011;12510;56.468;-3.004;2022-07-29T12:50:17;5.45;;;1.80;;
24389;SDS011;12510;56.468;-3.004;2022-07-29T12:52:44;4.05;;;1.80;;
24389;SDS011;12510;56.468;-3.004;2022-07-29T12:55:11;2.33;;;1.83;;
24389;SDS011;12510;56.468;-3.004;2022-07-29T12:57:45;8.82;;;3.05;;
24389;SDS011;12510;56.468;-3.004;2022-07-29T13:00:16;4.55;;;2.20;;
24389;SDS011;12510;56.468;-3.004;2022-07-29T13:02:57;7.50;;;3.22;;
24389;SDS011;12510;56.468;-3.004;2022-07-29T13:05:38;2.85;;;2.28;;
24389;SDS011;12510;56.468;-3.004;2022-07-29T13:08:09;5.00;;;2.13;;
24389;SDS011;12510;56.468;-3.004;2022-07-29T13:10:40;3.05;;;2.00;;
24389;SDS011;12510;56.468;-3.004;2022-07-29T13:13:11;4.68;;;1.65;;
24389;SDS011;12510;56.468;-3.004;2022-07-29T13:15:42;5.35;;;1.70;;
24389;SDS011;12510;56.468;-3.004;2022-07-29T13:18:29;2.45;;;1.67;;
24389;SDS011;12510;56.468;-3.004;2022-07-29T13:20:57;4.65;;;1.80;;
24389;SDS011;12510;56.468;-3.004;2022-07-29T13:23:36;4.53;;;2.08;;
24389;SDS011;12510;56.468;-3.004;2022-07-29T13:26:09;4.75;;;1.65;;
24389;SDS011;12510;56.468;-3.004;2022-07-29T13:28:42;7.68;;;2.45;;
24389;SDS011;12510;56.468;-3.004;2022-07-29T13:31:08;1.73;;;1.50;;
24389;SDS011;12510;56.468;-3.004;2022-07-29T13:33:34;3.92;;;2.15;;
24389;SDS011;12510;56.468;-3.004;2022-07-29T13:36:01;4.13;;;2.05;;
24389;SDS011;12510;56.468;-3.004;2022-07-29T13:38:27;2.80;;;1.45;;
24389;SDS011;12510;56.468;-3.004;2022-07-29T13:40:53;3.10;;;1.80;;
24389;SDS011;12510;56.468;-3.004;2022-07-29T13:43:20;3.72;;;1.80;;
24389;SDS011;12510;56.468;-3.004;2022-07-29T13:45:46;5.22;;;1.80;;
24389;SDS011;12510;56.468;-3.004;2022-07-29T13:48:13;3.42;;;1.95;;
24389;SDS011;12510;56.468;-3.004;2022-07-29T13:50:39;4.70;;;2.45;;
24389;SDS011;12510;56.468;-3.004;2022-07-29T13:53:06;2.70;;;1.83;;
24389;SDS011;12510;56.468;-3.004;2022-07-29T13:58:23;4.03;;;1.77;;
24389;SDS011;12510;56.468;-3.004;2022-07-29T14:00:50;6.05;;;1.83;;
24389;SDS011;12510;56.468;-3.004;2022-07-29T14:03:16;5.75;;;2.20;;
24389;SDS011;12510;56.468;-3.004;2022-07-29T14:05:43;5.28;;;2.30;;
24389;SDS011;12510;56.468;-3.004;2022-07-29T14:08:09;3.28;;;1.60;;
24389;SDS011;12510;56.468;-3.004;2022-07-29T14:10:36;3.35;;;1.48;;
24389;SDS011;12510;56.468;-3.004;2022-07-29T14:13:02;4.82;;;1.80;;
24389;SDS011;12510;56.468;-3.004;2022-07-29T14:15:29;5.50;;;1.88;;
24389;SDS011;12510;56.468;-3.004;2022-07-29T14:17:55;5.75;;;2.15;;
24389;SDS011;12510;56.468;-3.004;2022-07-29T14:20:21;3.25;;;2.10;;
24389;SDS011;12510;56.468;-3.004;2022-07-29T14:22:48;11.32;;;2.13;;
24389;SDS011;12510;56.468;-3.004;2022-07-29T14:25:14;5.38;;;2.03;;
24389;SDS011;12510;56.468;-3.004;2022-07-29T14:27:41;5.25;;;1.92;;
24389;SDS011;12510;56.468;-3.004;2022-07-29T14:30:09;4.18;;;1.83;;
24389;SDS011;12510;56.468;-3.004;2022-07-29T14:32:36;3.53;;;1.80;;
24389;SDS011;12510;56.468;-3.004;2022-07-29T14:35:03;3.97;;;2.22;;
24389;SDS011;12510;56.468;-3.004;2022-07-29T14:37:30;3.85;;;2.20;;
24389;SDS011;12510;56.468;-3.004;2022-07-29T14:39:56;4.00;;;2.95;;
24389;SDS011;12510;56.468;-3.004;2022-07-29T14:42:27;5.25;;;2.67;;
24389;SDS011;12510;56.468;-3.004;2022-07-29T14:44:53;5.47;;;2.40;;
24389;SDS011;12510;56.468;-3.004;2022-07-29T14:47:20;3.97;;;2.38;;
24389;SDS011;12510;56.468;-3.004;2022-07-29T14:49:47;5.10;;;2.45;;
24389;SDS011;12510;56.468;-3.004;2022-07-29T14:52:14;7.90;;;1.98;;
24389;SDS011;12510;56.468;-3.004;2022-07-29T14:54:40;10.27;;;2.17;;
24389;SDS011;12510;56.468;-3.004;2022-07-29T14:57:06;2.58;;;1.60;;
24389;SDS011;12510;56.468;-3.004;2022-07-29T14:59:33;3.22;;;1.90;;
24389;SDS011;12510;56.468;-3.004;2022-07-29T15:01:59;3.85;;;2.10;;
24389;SDS011;12510;56.468;-3.004;2022-07-29T15:04:26;3.13;;;2.40;;
24389;SDS011;12510;56.468;-3.004;2022-07-29T15:06:52;6.65;;;2.08;;
24389;SDS011;12510;56.468;-3.004;2022-07-29T15:09:19;4.38;;;2.25;;
24389;SDS011;12510;56.468;-3.004;2022-07-29T15:11:45;5.03;;;2.50;;
24389;SDS011;12510;56.468;-3.004;2022-07-29T15:14:11;3.28;;;1.77;;
24389;SDS011;12510;56.468;-3.004;2022-07-29T15:16:38;5.35;;;2.15;;
24389;SDS011;12510;56.468;-3.004;2022-07-29T15:19:08;4.45;;;2.35;;
24389;SDS011;12510;56.468;-3.004;2022-07-29T15:21:34;3.05;;;2.00;;
24389;SDS011;12510;56.468;-3.004;2022-07-29T15:24:01;3.08;;;1.75;;
24389;SDS011;12510;56.468;-3.004;2022-07-29T15:26:28;2.28;;;1.38;;
24389;SDS011;12510;56.468;-3.004;2022-07-29T15:28:55;5.22;;;1.80;;
24389;SDS011;12510;56.468;-3.004;2022-07-29T15:31:21;3.42;;;1.80;;
24389;SDS011;12510;56.468;-3.004;2022-07-29T15:33:48;3.40;;;1.83;;
24389;SDS011;12510;56.468;-3.004;2022-07-29T15:36:14;7.10;;;2.22;;
24389;SDS011;12510;56.468;-3.004;2022-07-29T15:38:41;9.48;;;2.25;;
24389;SDS011;12510;56.468;-3.004;2022-07-29T15:41:07;4.93;;;2.25;;
24389;SDS011;12510;56.468;-3.004;2022-07-29T15:43:33;5.68;;;1.85;;
24389;SDS011;12510;56.468;-3.004;2022-07-29T15:46:03;5.57;;;1.60;;
24389;SDS011;12510;56.468;-3.004;2022-07-29T15:48:47;3.30;;;1.65;;
24389;SDS011;12510;56.468;-3.004;2022-07-29T15:51:14;3.45;;;1.52;;